Lansing, New York
Current Conditions -  °F | °C
As of 1:13 AM on Wednesday 22 Oct 2014 (Local Time) from KITH Reporting Station
Haze Haze  
Wind Chill: 50°   Ceiling: 400
Heat Index: 50°   Visibility: 2.5mi
Dew Point: 48°   Wind: 3mph
Humidity: 94%   Direction: 360°N
Pressure: 30.01"   Gusts: NA
Location:  42.48°N, 76.48°W
Report Text: KITH 220513Z AUTO 36003KT 2 1/2SM BR OVC004 10/09 A3001 RMK AO2
Loading
Personal Weather Stations






























Interactive Weather Map
Tropical Storm Tracking
New forecast layout! Learn more

10-Day Weather Forecast

Advertisements
Track Severe Weather on mobile